createdAt,value
2022-07-31T00:00:43.583Z,20.71
2022-07-31T00:03:11.820Z,20.65
2022-07-31T00:05:41.820Z,20.63
2022-07-31T00:08:10.879Z,20.56
2022-07-31T00:10:38.961Z,20.56
2022-07-31T00:13:08.370Z,20.51
2022-07-31T00:15:38.359Z,20.50
2022-07-31T00:18:06.316Z,20.46
2022-07-31T00:20:34.478Z,20.38
2022-07-31T00:23:02.368Z,20.39
2022-07-31T00:25:30.816Z,20.38
2022-07-31T00:27:58.770Z,20.38
2022-07-31T00:30:28.070Z,20.40
2022-07-31T00:32:56.047Z,20.36
2022-07-31T00:35:24.610Z,20.29
2022-07-31T00:38:02.200Z,20.32
2022-07-31T00:40:47.867Z,20.19
2022-07-31T00:43:16.132Z,20.16
2022-07-31T00:45:45.758Z,20.12
2022-07-31T00:48:17.412Z,20.14
2022-07-31T00:50:46.101Z,20.16
2022-07-31T00:53:13.997Z,20.14
2022-07-31T00:55:51.354Z,20.13
2022-07-31T00:58:20.273Z,20.17
2022-07-31T01:00:50.001Z,20.16
2022-07-31T01:03:18.774Z,20.18
2022-07-31T01:05:46.826Z,20.17
2022-07-31T01:08:15.039Z,20.10
2022-07-31T01:10:49.493Z,20.11
2022-07-31T01:13:25.192Z,20.12
2022-07-31T01:15:56.574Z,20.09
2022-07-31T01:18:27.047Z,20.10
2022-07-31T01:20:59.162Z,20.12
2022-07-31T01:23:54.853Z,20.09
2022-07-31T01:26:36.056Z,20.08
2022-07-31T01:29:22.679Z,20.04
2022-07-31T01:31:58.048Z,19.95
2022-07-31T01:34:32.389Z,20.00
2022-07-31T01:37:07.939Z,20.03
2022-07-31T01:39:43.307Z,20.03
2022-07-31T01:42:17.744Z,19.97
2022-07-31T01:44:51.982Z,20.02
2022-07-31T01:47:22.675Z,19.99
2022-07-31T01:49:52.675Z,19.90
2022-07-31T01:52:22.790Z,19.93
2022-07-31T01:54:52.167Z,19.89
2022-07-31T01:57:23.372Z,19.88
2022-07-31T01:59:55.308Z,19.80
2022-07-31T02:02:25.525Z,19.82
2022-07-31T02:04:55.449Z,19.82
2022-07-31T02:07:24.426Z,19.75
2022-07-31T02:09:58.800Z,19.76
2022-07-31T02:12:33.806Z,19.72
2022-07-31T02:15:05.474Z,19.72
2022-07-31T02:17:35.053Z,19.74
2022-07-31T02:20:06.699Z,19.66
2022-07-31T02:22:35.084Z,19.62
2022-07-31T02:25:03.352Z,19.69
2022-07-31T02:27:53.741Z,19.66
2022-07-31T02:30:22.557Z,19.62
2022-07-31T02:32:51.188Z,19.62
2022-07-31T02:35:20.039Z,19.54
2022-07-31T02:37:53.922Z,19.60
2022-07-31T02:40:24.524Z,19.58
2022-07-31T02:42:54.132Z,19.58
2022-07-31T02:45:24.777Z,19.55
2022-07-31T02:47:53.074Z,19.55
2022-07-31T02:50:21.299Z,19.56
2022-07-31T02:52:49.341Z,19.52
2022-07-31T02:55:18.520Z,19.46
2022-07-31T02:57:48.256Z,19.45
2022-07-31T03:00:22.908Z,19.38
2022-07-31T03:02:53.896Z,19.33
2022-07-31T03:05:22.331Z,19.33
2022-07-31T03:07:50.629Z,19.27
2022-07-31T03:10:19.122Z,19.22
2022-07-31T03:12:50.020Z,19.20
2022-07-31T03:15:19.907Z,19.19
2022-07-31T03:17:49.235Z,19.16
2022-07-31T03:20:19.447Z,19.19
2022-07-31T03:22:47.950Z,19.14
2022-07-31T03:25:21.270Z,19.16
2022-07-31T03:27:55.054Z,19.21
2022-07-31T03:30:25.988Z,19.18
2022-07-31T03:32:54.301Z,19.12
2022-07-31T03:35:24.060Z,19.12
2022-07-31T03:37:52.005Z,19.06
2022-07-31T03:40:20.072Z,19.07
2022-07-31T03:42:49.946Z,18.98
2022-07-31T03:45:20.676Z,18.98
2022-07-31T03:47:48.870Z,18.94
2022-07-31T03:50:17.448Z,18.96
2022-07-31T03:52:48.365Z,18.98
2022-07-31T03:55:16.524Z,18.96
2022-07-31T03:57:45.448Z,19.01
2022-07-31T04:00:17.891Z,19.04
2022-07-31T04:02:47.104Z,19.05
2022-07-31T04:05:15.269Z,19.01
2022-07-31T04:07:43.234Z,19.02
2022-07-31T04:10:12.873Z,19.04
2022-07-31T04:12:41.148Z,19.11
2022-07-31T04:15:09.870Z,19.11
2022-07-31T04:17:37.807Z,19.23
2022-07-31T04:20:07.185Z,19.29
2022-07-31T04:22:35.539Z,19.35
2022-07-31T04:25:03.555Z,19.43
2022-07-31T04:27:33.146Z,19.51
2022-07-31T04:30:01.082Z,19.61
2022-07-31T04:32:30.986Z,19.71
2022-07-31T04:34:59.099Z,19.72
2022-07-31T04:37:27.011Z,19.76
2022-07-31T04:39:54.941Z,19.81
2022-07-31T04:42:23.131Z,19.89
2022-07-31T04:44:52.541Z,20.03
2022-07-31T04:47:22.024Z,20.10
2022-07-31T04:49:49.978Z,20.21
2022-07-31T04:52:18.215Z,20.30
2022-07-31T04:54:46.189Z,20.40
2022-07-31T04:57:16.366Z,20.53
2022-07-31T04:59:59.609Z,20.57
2022-07-31T05:02:30.176Z,20.66
2022-07-31T05:04:58.294Z,20.67
2022-07-31T05:07:28.667Z,20.66
2022-07-31T05:09:57.229Z,20.83
2022-07-31T05:12:25.200Z,20.87
2022-07-31T05:14:53.596Z,20.92
2022-07-31T05:17:21.684Z,21.00
2022-07-31T05:19:51.138Z,21.04
2022-07-31T05:22:19.402Z,21.14
2022-07-31T05:24:47.285Z,21.22
2022-07-31T05:27:15.294Z,21.18
2022-07-31T05:29:43.233Z,21.10
2022-07-31T05:32:11.445Z,21.09
2022-07-31T05:34:39.667Z,21.00
2022-07-31T05:37:09.276Z,20.94
2022-07-31T05:39:37.250Z,20.74
2022-07-31T05:42:05.897Z,20.76
2022-07-31T05:44:34.082Z,20.71
2022-07-31T05:47:01.981Z,20.70
2022-07-31T05:49:31.169Z,20.72
2022-07-31T05:51:59.094Z,20.73
2022-07-31T05:54:28.437Z,20.77
2022-07-31T05:56:56.519Z,20.76
2022-07-31T05:59:24.992Z,20.80
2022-07-31T06:01:53.390Z,20.91
2022-07-31T06:04:24.491Z,21.16
2022-07-31T06:06:52.392Z,21.26
2022-07-31T06:09:20.354Z,21.49
2022-07-31T06:11:49.651Z,21.81
2022-07-31T06:14:17.576Z,22.09
2022-07-31T06:16:47.783Z,22.25
2022-07-31T06:19:15.765Z,22.42
2022-07-31T06:21:43.703Z,22.54
2022-07-31T06:24:11.619Z,22.70
2022-07-31T06:26:41.261Z,22.93
2022-07-31T06:29:12.155Z,23.12
2022-07-31T06:31:40.111Z,23.42
2022-07-31T06:34:08.259Z,23.71
2022-07-31T06:36:36.179Z,23.90
2022-07-31T06:39:04.410Z,24.13
2022-07-31T06:41:51.022Z,24.28
2022-07-31T06:44:21.269Z,24.36
2022-07-31T06:46:49.894Z,24.31
2022-07-31T06:49:18.115Z,24.22
2022-07-31T06:51:46.434Z,24.41
2022-07-31T06:54:14.369Z,24.53
2022-07-31T06:56:42.715Z,24.88
2022-07-31T06:59:10.762Z,25.09
2022-07-31T07:01:40.068Z,25.41
2022-07-31T07:04:07.996Z,25.64
2022-07-31T07:06:36.114Z,25.82
2022-07-31T07:09:04.146Z,25.98
2022-07-31T07:11:32.336Z,25.96
2022-07-31T07:14:00.404Z,25.90
2022-07-31T07:16:28.373Z,25.61
2022-07-31T07:18:57.877Z,25.57
2022-07-31T07:21:26.379Z,25.58
2022-07-31T07:23:54.284Z,25.62
2022-07-31T07:26:22.300Z,25.66
2022-07-31T07:28:50.440Z,25.64
2022-07-31T07:31:18.338Z,25.78
2022-07-31T07:33:47.907Z,26.01
2022-07-31T07:36:22.834Z,25.85
2022-07-31T07:38:55.113Z,25.73
2022-07-31T07:41:24.074Z,25.60
2022-07-31T07:43:52.659Z,25.62
2022-07-31T07:46:21.697Z,25.61
2022-07-31T07:48:50.916Z,25.56
2022-07-31T07:51:22.799Z,25.38
2022-07-31T07:53:50.825Z,25.15
2022-07-31T07:56:19.053Z,25.04
2022-07-31T07:58:49.246Z,24.99
2022-07-31T08:01:18.108Z,24.94
2022-07-31T08:03:50.071Z,24.91
2022-07-31T08:06:21.463Z,24.95
2022-07-31T08:08:49.442Z,24.85
2022-07-31T08:11:18.067Z,24.66
2022-07-31T08:13:50.588Z,24.70
2022-07-31T08:16:20.381Z,24.59
2022-07-31T08:18:48.828Z,24.69
2022-07-31T08:21:20.131Z,24.57
2022-07-31T08:23:49.619Z,24.59
2022-07-31T08:26:18.790Z,24.61
2022-07-31T08:28:50.557Z,24.67
2022-07-31T08:31:20.052Z,24.66
2022-07-31T08:33:48.580Z,24.41
2022-07-31T08:36:16.637Z,24.46
2022-07-31T08:38:44.709Z,24.41
2022-07-31T08:41:15.731Z,24.46
2022-07-31T08:44:01.440Z,24.54
2022-07-31T08:46:33.665Z,24.80
2022-07-31T08:49:03.849Z,24.90
2022-07-31T08:51:50.928Z,24.96
2022-07-31T08:54:21.904Z,24.99
2022-07-31T08:56:52.742Z,25.01
2022-07-31T08:59:22.187Z,25.15
2022-07-31T09:01:50.494Z,25.42
2022-07-31T09:04:18.508Z,25.07
2022-07-31T09:06:46.726Z,25.15
2022-07-31T09:09:16.831Z,25.46
2022-07-31T09:11:49.170Z,25.69
2022-07-31T09:14:28.323Z,25.63
2022-07-31T09:16:56.880Z,25.67
2022-07-31T09:19:52.328Z,25.82
2022-07-31T09:22:22.952Z,25.89
2022-07-31T09:24:51.125Z,25.95
2022-07-31T09:27:19.593Z,25.87
2022-07-31T09:29:49.893Z,25.86
2022-07-31T09:32:21.312Z,25.56
2022-07-31T09:34:49.854Z,25.69
2022-07-31T09:37:19.185Z,25.94
2022-07-31T09:39:52.314Z,26.02
2022-07-31T09:42:21.285Z,25.82
2022-07-31T09:44:52.563Z,25.88
2022-07-31T09:47:22.996Z,25.94
2022-07-31T09:49:55.912Z,25.94
2022-07-31T09:52:24.262Z,26.15
2022-07-31T09:55:02.198Z,26.43
2022-07-31T09:57:30.424Z,26.52
2022-07-31T09:59:59.738Z,26.63
2022-07-31T10:02:29.742Z,26.88
2022-07-31T10:04:58.660Z,27.29
2022-07-31T10:07:32.471Z,27.84
2022-07-31T10:10:02.361Z,28.06
2022-07-31T10:12:32.738Z,28.28
2022-07-31T10:15:06.861Z,28.15
2022-07-31T10:17:39.763Z,27.94
2022-07-31T10:20:09.785Z,27.90
2022-07-31T10:22:45.177Z,27.97
2022-07-31T10:25:20.746Z,27.60
2022-07-31T10:27:49.727Z,27.57
2022-07-31T10:30:19.197Z,27.72
2022-07-31T10:32:47.395Z,27.96
2022-07-31T10:35:16.155Z,27.89
2022-07-31T10:37:54.471Z,28.02
2022-07-31T10:40:30.719Z,28.16
2022-07-31T10:43:18.101Z,28.33
2022-07-31T10:45:51.991Z,28.41
2022-07-31T10:48:21.148Z,28.25
2022-07-31T10:50:49.867Z,28.33
2022-07-31T10:53:19.443Z,28.49
2022-07-31T10:55:47.721Z,28.71
2022-07-31T10:58:17.129Z,28.80
2022-07-31T11:00:45.558Z,28.83
2022-07-31T11:03:17.418Z,28.65
2022-07-31T11:06:02.227Z,28.78
2022-07-31T11:08:42.072Z,29.02
2022-07-31T11:11:10.528Z,29.05
2022-07-31T11:13:51.649Z,29.10
2022-07-31T11:16:20.688Z,29.20
2022-07-31T11:19:00.019Z,29.31
2022-07-31T11:21:39.065Z,29.14
2022-07-31T11:24:14.491Z,29.15
2022-07-31T11:26:51.972Z,29.28
2022-07-31T11:29:59.209Z,29.43
2022-07-31T11:32:24.831Z,29.36
2022-07-31T11:34:57.289Z,29.41
2022-07-31T11:37:30.668Z,29.51
2022-07-31T11:40:15.292Z,29.44
2022-07-31T11:42:46.160Z,29.33
2022-07-31T11:45:15.520Z,28.98
2022-07-31T11:48:10.026Z,29.10
2022-07-31T11:50:42.581Z,29.18
2022-07-31T11:53:10.768Z,29.13
2022-07-31T11:55:46.483Z,29.38
2022-07-31T11:58:15.331Z,29.21
2022-07-31T12:00:48.445Z,29.33
2022-07-31T12:03:17.740Z,29.40
2022-07-31T12:05:48.825Z,29.40
2022-07-31T12:08:17.582Z,29.41
2022-07-31T12:10:46.664Z,29.29
2022-07-31T12:13:16.395Z,29.13
2022-07-31T12:15:56.335Z,29.08
2022-07-31T12:18:26.325Z,29.21
2022-07-31T12:20:57.836Z,29.48
2022-07-31T12:23:40.294Z,29.50
2022-07-31T12:26:12.165Z,29.47
2022-07-31T12:28:40.312Z,29.55
2022-07-31T12:31:08.295Z,29.65
2022-07-31T12:33:43.949Z,29.51
2022-07-31T12:36:17.713Z,29.52
2022-07-31T12:38:48.381Z,29.68
2022-07-31T12:41:17.343Z,29.65
2022-07-31T12:43:52.032Z,29.56
2022-07-31T12:46:24.466Z,29.49
2022-07-31T12:48:52.443Z,29.39
2022-07-31T12:51:44.807Z,29.24
2022-07-31T12:54:14.162Z,29.08
2022-07-31T12:56:44.301Z,28.95
2022-07-31T12:59:12.409Z,28.99
2022-07-31T13:01:40.469Z,28.97
2022-07-31T13:04:18.674Z,28.94
2022-07-31T13:06:52.096Z,28.94
2022-07-31T13:09:21.129Z,28.86
2022-07-31T13:11:51.307Z,28.67
2022-07-31T13:14:23.559Z,28.46
2022-07-31T13:16:53.101Z,28.39
2022-07-31T13:19:21.042Z,28.58
2022-07-31T13:21:50.419Z,28.63
2022-07-31T13:24:19.878Z,28.38
2022-07-31T13:26:51.577Z,28.27
2022-07-31T13:29:20.601Z,28.20
2022-07-31T13:31:48.624Z,28.23
2022-07-31T13:34:16.612Z,28.12
2022-07-31T13:36:44.518Z,28.12
2022-07-31T13:39:13.784Z,27.97
2022-07-31T13:41:42.662Z,27.79
2022-07-31T13:44:10.662Z,27.78
2022-07-31T13:46:38.605Z,27.62
2022-07-31T13:49:10.591Z,27.77
2022-07-31T13:51:39.504Z,27.83
2022-07-31T13:54:08.639Z,27.91
2022-07-31T13:56:42.729Z,27.94
2022-07-31T13:59:12.722Z,28.09
2022-07-31T14:02:03.820Z,28.18
2022-07-31T14:04:32.495Z,27.99
2022-07-31T14:07:06.046Z,28.04
2022-07-31T14:09:38.027Z,28.02
2022-07-31T14:12:08.631Z,27.96
2022-07-31T14:14:37.662Z,28.01
2022-07-31T14:17:05.587Z,27.99
2022-07-31T14:19:41.874Z,28.00
2022-07-31T14:22:13.275Z,27.93
2022-07-31T14:24:41.583Z,27.89
2022-07-31T14:27:20.499Z,27.80
2022-07-31T14:29:48.570Z,27.77
2022-07-31T14:32:16.956Z,27.72
2022-07-31T14:34:44.817Z,27.68
2022-07-31T14:37:12.808Z,27.68
2022-07-31T14:39:43.167Z,27.52
2022-07-31T14:42:12.167Z,27.48
2022-07-31T14:44:42.566Z,27.43
2022-07-31T14:47:11.114Z,27.32
2022-07-31T14:50:09.227Z,27.15
2022-07-31T14:52:27.834Z,27.10
2022-07-31T14:54:56.214Z,27.03
2022-07-31T14:57:24.338Z,27.05
2022-07-31T14:59:53.790Z,26.99
2022-07-31T15:02:22.894Z,26.83
2022-07-31T15:04:51.887Z,26.74
2022-07-31T15:07:38.476Z,26.53
2022-07-31T15:10:09.911Z,26.36
2022-07-31T15:12:38.373Z,25.84
2022-07-31T15:15:09.078Z,25.46
2022-07-31T15:17:37.552Z,25.35
2022-07-31T15:20:06.343Z,25.10
2022-07-31T15:22:34.299Z,24.94
2022-07-31T15:25:02.199Z,24.86
2022-07-31T15:27:30.282Z,24.77
2022-07-31T15:30:00.492Z,24.69
2022-07-31T15:32:36.626Z,24.48
2022-07-31T15:35:05.683Z,24.26
2022-07-31T15:37:35.377Z,24.24
2022-07-31T15:40:07.853Z,24.20
2022-07-31T15:42:40.483Z,24.07
2022-07-31T15:45:10.776Z,24.00
2022-07-31T15:47:40.708Z,23.88
2022-07-31T15:50:11.350Z,23.82
2022-07-31T15:52:39.856Z,23.74
2022-07-31T15:55:09.098Z,23.77
2022-07-31T15:57:37.342Z,23.77
2022-07-31T16:00:07.643Z,23.80
2022-07-31T16:02:35.560Z,23.83
2022-07-31T16:05:12.164Z,23.82
2022-07-31T16:08:30.765Z,23.75
2022-07-31T16:10:41.404Z,23.75
2022-07-31T16:13:09.627Z,23.67
2022-07-31T16:15:37.880Z,23.64
2022-07-31T16:18:07.025Z,23.65
2022-07-31T16:20:38.751Z,23.67
2022-07-31T16:23:06.823Z,23.63
2022-07-31T16:25:35.594Z,23.66
2022-07-31T16:28:04.187Z,23.68
2022-07-31T16:30:32.407Z,23.65
2022-07-31T16:33:00.476Z,23.66
2022-07-31T16:35:28.539Z,23.64
2022-07-31T16:37:58.273Z,23.66
2022-07-31T16:40:29.959Z,23.59
2022-07-31T16:43:01.116Z,23.51
2022-07-31T16:45:30.044Z,23.48
2022-07-31T16:47:58.161Z,23.49
2022-07-31T16:50:26.452Z,23.41
2022-07-31T16:52:55.272Z,23.39
2022-07-31T16:55:47.009Z,23.32
2022-07-31T16:58:14.080Z,23.31
2022-07-31T17:00:42.314Z,23.29
2022-07-31T17:04:01.574Z,23.30
2022-07-31T17:05:58.805Z,23.24
2022-07-31T17:08:28.935Z,23.23
2022-07-31T17:10:58.555Z,23.17
2022-07-31T17:13:26.602Z,23.21
2022-07-31T17:15:54.678Z,23.15
2022-07-31T17:18:25.555Z,23.12
2022-07-31T17:20:56.031Z,23.09
2022-07-31T17:23:42.795Z,23.11
2022-07-31T17:26:21.444Z,23.05
2022-07-31T17:28:50.635Z,22.98
2022-07-31T17:31:19.332Z,22.95
2022-07-31T17:33:58.579Z,22.93
2022-07-31T17:36:29.533Z,22.87
2022-07-31T17:38:57.798Z,22.82
2022-07-31T17:41:30.136Z,22.78
2022-07-31T17:43:58.117Z,22.77
2022-07-31T17:46:36.309Z,22.75
2022-07-31T17:49:08.652Z,22.70
2022-07-31T17:51:40.241Z,22.65
2022-07-31T17:54:33.089Z,22.61
2022-07-31T17:57:03.083Z,22.49
2022-07-31T17:59:37.944Z,22.46
2022-07-31T18:02:13.155Z,22.33
2022-07-31T18:04:43.811Z,22.20
2022-07-31T18:07:31.313Z,22.14
2022-07-31T18:10:02.147Z,22.04
2022-07-31T18:12:57.297Z,21.97
2022-07-31T18:15:35.666Z,21.92
2022-07-31T18:18:04.488Z,21.86
2022-07-31T18:20:40.979Z,21.83
2022-07-31T18:23:10.977Z,21.92
2022-07-31T18:25:42.951Z,21.87
2022-07-31T18:28:19.349Z,21.89
2022-07-31T18:30:47.225Z,21.88
2022-07-31T18:33:17.428Z,21.86
2022-07-31T18:35:52.188Z,21.85
2022-07-31T18:38:21.193Z,21.82
2022-07-31T18:40:54.867Z,21.78
2022-07-31T18:43:27.104Z,21.72
2022-07-31T18:45:55.586Z,21.72
2022-07-31T18:48:26.864Z,21.68
2022-07-31T18:51:05.789Z,21.72
2022-07-31T18:53:34.776Z,21.73
2022-07-31T18:56:03.171Z,21.67
2022-07-31T18:58:32.567Z,21.63
2022-07-31T19:01:00.763Z,21.61
2022-07-31T19:03:30.691Z,21.62
2022-07-31T19:05:58.705Z,21.63
2022-07-31T19:08:26.804Z,21.61
2022-07-31T19:10:54.666Z,21.53
2022-07-31T19:13:23.306Z,21.46
2022-07-31T19:15:54.020Z,21.32
2022-07-31T19:18:27.932Z,21.30
2022-07-31T19:21:22.835Z,21.32
2022-07-31T19:23:44.876Z,21.31
2022-07-31T19:26:13.124Z,21.31
2022-07-31T19:28:43.198Z,21.31
2022-07-31T19:31:13.758Z,21.26
2022-07-31T19:33:42.005Z,21.30
2022-07-31T19:36:10.995Z,21.32
2022-07-31T19:38:40.536Z,21.23
2022-07-31T19:41:08.442Z,21.20
2022-07-31T19:43:36.341Z,21.22
2022-07-31T19:46:11.692Z,21.26
2022-07-31T19:48:42.265Z,21.24
2022-07-31T19:51:11.488Z,21.14
2022-07-31T19:53:39.515Z,21.15
2022-07-31T19:56:07.813Z,21.08
2022-07-31T19:58:37.723Z,21.07
2022-07-31T20:01:06.298Z,21.06
2022-07-31T20:03:34.607Z,20.97
2022-07-31T20:06:05.066Z,21.01
2022-07-31T20:08:33.862Z,21.02
2022-07-31T20:11:04.108Z,20.95
2022-07-31T20:13:33.185Z,20.98
2022-07-31T20:16:01.634Z,20.96
2022-07-31T20:18:30.630Z,20.92
2022-07-31T20:21:02.634Z,20.96
2022-07-31T20:23:34.256Z,20.97
2022-07-31T20:26:02.963Z,20.91
2022-07-31T20:28:30.999Z,20.93
2022-07-31T20:30:59.115Z,20.94
2022-07-31T20:33:27.367Z,20.89
2022-07-31T20:35:55.316Z,20.90
2022-07-31T20:38:24.739Z,20.86
2022-07-31T20:40:56.163Z,20.80
2022-07-31T20:43:25.200Z,20.77
2022-07-31T20:45:54.149Z,20.82
2022-07-31T20:48:24.660Z,20.82
2022-07-31T20:50:53.050Z,20.86
2022-07-31T20:53:22.072Z,20.83
2022-07-31T20:55:50.653Z,20.84
2022-07-31T20:58:21.654Z,20.89
2022-07-31T21:00:50.069Z,20.93
2022-07-31T21:03:18.911Z,20.92
2022-07-31T21:05:47.459Z,20.90
2022-07-31T21:08:15.797Z,20.87
2022-07-31T21:10:44.088Z,20.91
2022-07-31T21:13:12.416Z,20.90
2022-07-31T21:15:45.190Z,20.90
2022-07-31T21:18:14.264Z,20.88
2022-07-31T21:20:52.481Z,20.91
2022-07-31T21:23:22.637Z,20.91
2022-07-31T21:25:51.410Z,20.89
2022-07-31T21:28:19.816Z,20.85
2022-07-31T21:30:49.737Z,20.91
2022-07-31T21:33:18.632Z,20.89
2022-07-31T21:35:47.347Z,20.90
2022-07-31T21:38:16.353Z,20.87
2022-07-31T21:40:45.320Z,20.85
2022-07-31T21:43:16.758Z,20.90
2022-07-31T21:45:55.592Z,20.84
2022-07-31T21:48:27.998Z,20.87
2022-07-31T21:50:56.428Z,20.86
2022-07-31T21:53:25.443Z,20.88
2022-07-31T21:55:53.395Z,20.93
2022-07-31T21:58:21.631Z,20.93
2022-07-31T22:00:50.980Z,20.96
2022-07-31T22:03:18.896Z,20.99
2022-07-31T22:06:04.126Z,20.95
2022-07-31T22:08:32.039Z,20.93
2022-07-31T22:10:59.979Z,20.92
2022-07-31T22:13:27.960Z,20.90
2022-07-31T22:15:59.947Z,20.89
2022-07-31T22:18:29.458Z,20.96
2022-07-31T22:20:58.301Z,20.97
2022-07-31T22:23:27.561Z,20.86
2022-07-31T22:25:56.292Z,20.89
2022-07-31T22:28:25.397Z,20.98
2022-07-31T22:30:54.113Z,20.97
2022-07-31T22:33:24.308Z,21.01
2022-07-31T22:35:59.791Z,21.08
2022-07-31T22:38:30.280Z,21.15
2022-07-31T22:40:58.875Z,21.11
2022-07-31T22:44:12.833Z,21.04
2022-07-31T22:46:15.219Z,21.14
2022-07-31T22:48:46.355Z,21.20
2022-07-31T22:51:15.441Z,21.13
2022-07-31T22:53:44.031Z,21.14
2022-07-31T22:56:12.099Z,21.17
2022-07-31T22:58:40.166Z,21.16
2022-07-31T23:01:08.060Z,21.16
2022-07-31T23:03:35.989Z,21.17
2022-07-31T23:06:30.749Z,21.12
2022-07-31T23:08:54.616Z,21.14
2022-07-31T23:11:23.624Z,21.17
2022-07-31T23:13:51.607Z,21.14
2022-07-31T23:16:20.307Z,21.15
2022-07-31T23:18:48.594Z,21.19
2022-07-31T23:21:18.711Z,21.21
2022-07-31T23:23:49.021Z,21.19
2022-07-31T23:26:18.472Z,21.19
2022-07-31T23:28:46.447Z,21.20
2022-07-31T23:31:14.602Z,21.23
2022-07-31T23:33:42.877Z,21.18
2022-07-31T23:36:11.095Z,21.20
2022-07-31T23:38:40.536Z,21.25
2022-07-31T23:41:08.998Z,21.24
2022-07-31T23:43:36.080Z,21.25
2022-07-31T23:46:04.627Z,21.23
2022-07-31T23:48:33.005Z,21.23
2022-07-31T23:51:01.010Z,21.26
2022-07-31T23:53:28.901Z,21.28
2022-07-31T23:55:58.283Z,21.31
2022-07-31T23:58:26.205Z,21.30
